Time;durP1;ratioP1;P1;durP2;ratioP2;P2;SDS_P1;SDS_P2;PMS_P1;PMS_P2;Temp;Humidity;BMP_temperature;BMP_pressure;BME280_temperature;BME280_humidity;BME280_pressure;Samples;Min_cycle;Max_cycle;Signal;HPM_P1;HPM_P2
2021/10/18 00:01:06;;;;;;;12.20;11.13;;;11.10;42.30;;;;;;10323494;28;20244;-76
2021/10/18 00:06:10;;;;;;;13.43;12.33;;;11.10;42.10;;;;;;10311118;28;20291;-76
2021/10/18 00:11:14;;;;;;;11.90;10.90;;;11.10;42.10;;;;;;10329204;28;20245;-76
2021/10/18 00:16:39;;;;;;;13.60;12.47;;;11.20;42.30;;;;;;10321978;28;20716;-77
2021/10/18 00:21:42;;;;;;;12.63;11.60;;;11.30;42.10;;;;;;10314253;28;20246;-77
2021/10/18 00:26:46;;;;;;;15.43;14.03;;;11.20;41.90;;;;;;10331618;28;20771;-76
2021/10/18 00:31:50;;;;;;;16.57;15.00;;;11.20;42.90;;;;;;10315507;28;20227;-76
2021/10/18 00:36:53;;;;;;;15.60;14.07;;;11.20;41.90;;;;;;10307637;28;20245;-76
2021/10/18 00:41:58;;;;;;;16.00;14.50;;;11.20;42.10;;;;;;10336276;28;20231;-76
2021/10/18 00:47:02;;;;;;;15.17;13.77;;;11.20;42.20;;;;;;10350272;28;20250;-76
2021/10/18 00:52:05;;;;;;;14.67;13.33;;;11.10;42.00;;;;;;10330380;28;20231;-76
2021/10/18 00:57:10;;;;;;;16.33;14.83;;;11.10;42.00;;;;;;10304214;28;20330;-77
2021/10/18 01:02:14;;;;;;;17.00;15.20;;;11.10;42.40;;;;;;10328484;28;20239;-76
2021/10/18 01:07:17;;;;;;;15.83;14.40;;;11.10;42.10;;;;;;10320566;28;20227;-76
2021/10/18 01:12:22;;;;;;;16.33;14.83;;;11.10;43.10;;;;;;10318636;28;20245;-77
2021/10/18 01:17:26;;;;;;;17.00;15.50;;;11.10;42.80;;;;;;10333533;28;20310;-76
2021/10/18 01:22:30;;;;;;;16.83;15.20;;;11.10;42.50;;;;;;10317998;28;20237;-77
2021/10/18 01:27:33;;;;;;;16.27;14.60;;;11.10;42.70;;;;;;10336423;28;20294;-77
2021/10/18 01:32:36;;;;;;;16.67;15.07;;;11.20;42.50;;;;;;10318882;28;20246;-76
2021/10/18 01:37:41;;;;;;;16.70;15.10;;;11.20;42.50;;;;;;10324116;28;20242;-77
2021/10/18 01:42:45;;;;;;;16.03;14.50;;;11.20;42.60;;;;;;10310602;28;20239;-77
2021/10/18 01:47:49;;;;;;;17.63;15.97;;;11.20;42.50;;;;;;10326986;28;20242;-76
2021/10/18 01:52:54;;;;;;;18.03;16.23;;;11.20;42.60;;;;;;10317244;28;20236;-76
2021/10/18 01:57:58;;;;;;;18.23;16.43;;;11.20;43.00;;;;;;10330991;28;20243;-76
2021/10/18 02:03:01;;;;;;;16.53;14.93;;;11.20;42.70;;;;;;10313763;28;20250;-76
2021/10/18 02:08:06;;;;;;;19.60;17.67;;;11.20;42.70;;;;;;10318713;28;20269;-77
2021/10/18 02:13:09;;;;;;;17.20;15.43;;;11.20;43.10;;;;;;10319353;28;20600;-76
2021/10/18 02:18:12;;;;;;;29.27;17.63;;;11.20;42.90;;;;;;10319891;28;20238;-76
2021/10/18 02:23:17;;;;;;;32.77;18.20;;;11.30;43.00;;;;;;10336114;28;21602;-76
2021/10/18 02:28:21;;;;;;;20.63;17.60;;;11.30;43.40;;;;;;10322091;28;20309;-77
2021/10/18 02:33:24;;;;;;;30.57;18.63;;;11.30;43.20;;;;;;10338790;28;20694;-76
2021/10/18 02:38:29;;;;;;;18.97;17.13;;;11.30;43.30;;;;;;10313280;28;20228;-76
2021/10/18 02:43:32;;;;;;;18.03;16.27;;;11.30;43.80;;;;;;10317427;28;20234;-76
2021/10/18 02:48:36;;;;;;;18.67;16.97;;;11.30;43.50;;;;;;10315724;28;20261;-76
2021/10/18 02:53:40;;;;;;;20.20;18.20;;;11.30;43.40;;;;;;10318005;28;20237;-76
2021/10/18 02:58:43;;;;;;;20.40;18.30;;;11.30;43.80;;;;;;10312415;28;20247;-76
2021/10/18 03:03:46;;;;;;;24.53;18.10;;;11.40;43.60;;;;;;10332461;28;20234;-76
2021/10/18 03:08:52;;;;;;;22.93;18.03;;;11.40;43.50;;;;;;10325556;28;20239;-76
2021/10/18 03:13:56;;;;;;;22.83;18.43;;;11.40;43.80;;;;;;10334601;28;20256;-76
2021/10/18 03:18:59;;;;;;;17.70;15.90;;;11.40;43.60;;;;;;10298399;28;20946;-76
2021/10/18 03:24:05;;;;;;;20.10;18.00;;;11.30;43.70;;;;;;10331609;28;20626;-76
2021/10/18 03:29:08;;;;;;;19.13;17.20;;;11.30;44.20;;;;;;10347093;28;20244;-77
2021/10/18 03:34:11;;;;;;;19.27;17.27;;;11.40;43.80;;;;;;10327543;28;20235;-77
2021/10/18 03:39:15;;;;;;;18.83;16.83;;;11.40;43.90;;;;;;10308989;28;20251;-76
2021/10/18 03:44:18;;;;;;;19.77;17.67;;;11.50;44.30;;;;;;10317632;28;20231;-76
2021/10/18 03:49:22;;;;;;;20.80;18.70;;;11.50;43.90;;;;;;10323599;28;20242;-77
2021/10/18 03:54:26;;;;;;;18.83;16.83;;;11.60;44.00;;;;;;10308409;28;20251;-76
2021/10/18 03:59:30;;;;;;;20.53;18.30;;;11.60;44.20;;;;;;10314141;28;20235;-76
2021/10/18 04:04:33;;;;;;;17.53;15.83;;;11.70;43.90;;;;;;10308951;28;20322;-76
2021/10/18 04:09:38;;;;;;;20.50;17.10;;;11.70;43.90;;;;;;10305096;28;20251;-77
2021/10/18 04:14:42;;;;;;;22.23;19.00;;;11.70;44.20;;;;;;10322361;28;20647;-76
2021/10/18 04:19:45;;;;;;;20.70;18.50;;;11.80;44.00;;;;;;10309518;28;20249;-76
2021/10/18 04:24:49;;;;;;;20.73;17.70;;;11.80;43.90;;;;;;10335403;28;20250;-76
2021/10/18 04:29:53;;;;;;;19.23;17.23;;;11.80;44.00;;;;;;10336205;28;20601;-77
2021/10/18 04:34:56;;;;;;;19.33;17.30;;;11.80;43.60;;;;;;10323658;28;20254;-77
2021/10/18 04:40:01;;;;;;;21.10;17.53;;;11.80;43.90;;;;;;10327133;28;20244;-76
2021/10/18 04:45:05;;;;;;;19.10;16.80;;;11.70;44.80;;;;;;10329496;28;20244;-77
2021/10/18 04:50:09;;;;;;;17.63;15.23;;;11.80;44.00;;;;;;10327725;28;20243;-77
2021/10/18 04:55:14;;;;;;;18.43;16.50;;;11.80;44.00;;;;;;10341120;28;20266;-77
2021/10/18 05:00:18;;;;;;;20.37;17.13;;;11.80;44.30;;;;;;10334330;28;20241;-77
2021/10/18 05:05:22;;;;;;;18.53;15.50;;;11.80;43.90;;;;;;10310248;28;20238;-75
2021/10/18 05:10:27;;;;;;;18.40;13.03;;;11.80;44.00;;;;;;10312174;28;20231;-76
2021/10/18 05:15:31;;;;;;;17.03;14.50;;;11.80;45.50;;;;;;10319339;28;20294;-76
2021/10/18 05:20:36;;;;;;;20.17;16.17;;;11.90;45.00;;;;;;10321004;28;20251;-76
2021/10/18 05:25:40;;;;;;;20.77;15.33;;;12.00;44.70;;;;;;10311545;28;20245;-76
2021/10/18 05:30:44;;;;;;;19.20;15.70;;;12.00;44.30;;;;;;10320154;28;20612;-76
2021/10/18 05:35:47;;;;;;;19.37;16.30;;;12.00;43.90;;;;;;10313684;28;20254;-76
2021/10/18 05:40:53;;;;;;;19.03;16.20;;;12.00;44.00;;;;;;10310785;28;20318;-76
2021/10/18 05:45:56;;;;;;;19.70;15.80;;;12.00;44.30;;;;;;10310807;28;20245;-76
2021/10/18 05:50:59;;;;;;;20.13;16.77;;;12.00;44.00;;;;;;10314189;28;20586;-75
2021/10/18 05:56:06;;;;;;;18.13;14.77;;;11.90;44.00;;;;;;10308675;28;20235;-75
2021/10/18 06:01:09;;;;;;;17.70;14.67;;;12.00;44.30;;;;;;10310668;28;20243;-76
2021/10/18 06:06:15;;;;;;;21.63;17.17;;;12.00;44.00;;;;;;10315428;28;20242;-75
2021/10/18 06:11:39;;;;;;;15.43;12.87;;;12.00;44.00;;;;;;10319465;28;20238;-75
2021/10/18 06:16:42;;;;;;;17.60;14.90;;;12.00;44.20;;;;;;10311448;28;20238;-75
2021/10/18 06:21:46;;;;;;;18.60;14.47;;;12.00;44.00;;;;;;10306166;28;20246;-76
2021/10/18 06:26:51;;;;;;;17.00;14.57;;;12.00;44.00;;;;;;10309626;28;20736;-75
2021/10/18 06:31:54;;;;;;;14.70;12.73;;;11.90;45.00;;;;;;10291662;28;20232;-75
2021/10/18 06:36:57;;;;;;;17.50;15.60;;;11.90;44.10;;;;;;10311295;28;20231;-75
2021/10/18 06:42:02;;;;;;;17.77;15.70;;;11.90;44.20;;;;;;10312854;28;20243;-75
2021/10/18 06:47:05;;;;;;;16.37;14.53;;;12.00;45.20;;;;;;10313439;28;20243;-75
2021/10/18 06:52:08;;;;;;;18.40;16.47;;;12.00;44.30;;;;;;10310774;28;20230;-75
2021/10/18 06:57:13;;;;;;;18.27;16.13;;;12.00;44.30;;;;;;10316523;28;20239;-75
2021/10/18 07:02:16;;;;;;;20.67;17.43;;;12.00;44.60;;;;;;10309926;28;20231;-76
2021/10/18 07:07:21;;;;;;;18.73;16.80;;;12.00;44.20;;;;;;10298680;28;20233;-75
2021/10/18 07:12:25;;;;;;;18.03;16.13;;;12.10;44.00;;;;;;10310880;28;20234;-76
2021/10/18 07:17:29;;;;;;;20.23;15.57;;;12.00;44.30;;;;;;10305054;28;20242;-76
2021/10/18 07:22:40;;;;;;;19.27;16.60;;;11.90;44.10;;;;;;10305542;28;20249;-75
2021/10/18 07:27:46;;;;;;;17.90;16.00;;;11.90;44.10;;;;;;10301458;28;20242;-76
2021/10/18 07:32:54;;;;;;;18.90;16.10;;;11.90;44.60;;;;;;10316104;28;20310;-76
2021/10/18 07:37:59;;;;;;;19.13;16.07;;;11.90;44.50;;;;;;10315965;28;20249;-75
2021/10/18 07:43:06;;;;;;;18.43;16.00;;;11.90;44.60;;;;;;10303137;28;20227;-75
2021/10/18 07:48:09;;;;;;;16.33;14.60;;;11.90;44.70;;;;;;10315067;28;20594;-75
2021/10/18 07:53:13;;;;;;;16.97;15.17;;;11.90;44.50;;;;;;10322936;28;20235;-75
2021/10/18 07:58:17;;;;;;;17.67;15.07;;;11.90;44.50;;;;;;10313443;28;20250;-74
2021/10/18 08:03:21;;;;;;;15.97;14.30;;;11.80;44.80;;;;;;10302079;28;20227;-74
2021/10/18 08:08:30;;;;;;;18.00;16.10;;;11.80;44.50;;;;;;10316654;28;20246;-74
2021/10/18 08:13:34;;;;;;;17.33;15.17;;;11.90;44.60;;;;;;10308726;28;20460;-74
2021/10/18 08:18:38;;;;;;;16.30;14.60;;;11.90;45.00;;;;;;10302621;28;20648;-74
2021/10/18 08:23:42;;;;;;;18.43;15.93;;;12.00;45.00;;;;;;10306586;28;20230;-74
2021/10/18 08:28:46;;;;;;;18.23;16.00;;;12.10;44.90;;;;;;10312019;28;20231;-74
2021/10/18 08:33:50;;;;;;;20.53;17.33;;;12.10;45.00;;;;;;10302735;28;20243;-75
2021/10/18 08:38:57;;;;;;;18.67;15.90;;;12.20;44.80;;;;;;10317535;28;20239;-75
2021/10/18 08:44:17;;;;;;;22.57;17.73;;;12.20;44.80;;;;;;10310545;28;20239;-75
2021/10/18 08:49:22;;;;;;;23.07;17.50;;;12.30;45.20;;;;;;10305991;28;20261;-75
2021/10/18 08:54:25;;;;;;;20.47;15.80;;;12.30;45.10;;;;;;10307939;28;20238;-75
2021/10/18 08:59:30;;;;;;;20.43;16.20;;;12.30;44.80;;;;;;10318410;28;20278;-75
2021/10/18 09:04:39;;;;;;;20.43;16.43;;;12.30;45.00;;;;;;10311878;28;20242;-74
2021/10/18 09:09:47;;;;;;;18.77;15.87;;;12.40;45.50;;;;;;10307062;28;20286;-75
2021/10/18 09:14:52;;;;;;;20.70;16.20;;;12.30;45.30;;;;;;10310149;28;20245;-75
2021/10/18 09:20:16;;;;;;;21.00;17.67;;;12.30;45.30;;;;;;10312194;28;20330;-75
2021/10/18 09:25:38;;;;;;;21.37;18.43;;;12.40;45.20;;;;;;10308449;28;20234;-75
2021/10/18 09:30:45;;;;;;;22.27;18.57;;;12.40;45.90;;;;;;10318611;28;20242;-74
2021/10/18 09:35:49;;;;;;;24.23;18.30;;;12.40;45.50;;;;;;10307264;28;20712;-75
2021/10/18 09:40:54;;;;;;;25.03;18.40;;;12.50;45.30;;;;;;10317363;28;20238;-75
2021/10/18 09:46:07;;;;;;;22.70;16.70;;;12.50;45.50;;;;;;10305664;28;20614;-73
2021/10/18 10:51:45;;;;;;;26.40;22.53;;;13.30;45.20;;;;;;10305944;28;20227;-75
2021/10/18 10:57:09;;;;;;;22.90;19.43;;;13.30;45.40;;;;;;10331366;28;20266;-75
2021/10/18 11:02:12;;;;;;;28.03;22.20;;;13.40;45.60;;;;;;10309908;28;20695;-75
2021/10/18 11:07:21;;;;;;;26.57;22.83;;;13.40;45.20;;;;;;10320920;28;20243;-76
2021/10/18 11:12:28;;;;;;;25.43;21.83;;;13.50;45.60;;;;;;10298169;28;20949;-76
2021/10/18 11:17:35;;;;;;;27.33;23.73;;;13.60;45.60;;;;;;10307533;28;20241;-75
2021/10/18 11:22:42;;;;;;;27.67;22.23;;;13.60;45.30;;;;;;10309359;28;20227;-75
2021/10/18 11:27:52;;;;;;;26.77;23.37;;;13.70;45.40;;;;;;10311930;28;20231;-76
2021/10/18 11:32:57;;;;;;;25.03;21.43;;;13.70;45.60;;;;;;10308398;28;20231;-76
2021/10/18 11:38:03;;;;;;;26.07;21.33;;;13.80;45.40;;;;;;10319107;28;20294;-75
2021/10/18 11:43:08;;;;;;;26.10;22.73;;;13.80;45.30;;;;;;10301733;28;20695;-74
2021/10/18 11:48:13;;;;;;;27.23;22.97;;;13.90;45.10;;;;;;10310839;28;20228;-76
2021/10/18 11:53:19;;;;;;;25.27;21.30;;;13.90;45.20;;;;;;10322609;28;20242;-76
2021/10/18 11:58:23;;;;;;;25.77;22.03;;;14.00;45.20;;;;;;10326570;28;20692;-75
2021/10/18 12:03:29;;;;;;;26.13;19.20;;;14.10;45.30;;;;;;10317408;28;20257;-74
2021/10/18 12:08:35;;;;;;;26.37;22.53;;;14.10;46.20;;;;;;10318137;28;20242;-75
2021/10/18 12:13:40;;;;;;;28.00;23.07;;;14.20;45.70;;;;;;10327123;28;20239;-75
2021/10/18 12:18:48;;;;;;;24.63;21.93;;;14.30;45.30;;;;;;10310916;28;20227;-73
2021/10/18 12:23:56;;;;;;;23.77;20.43;;;14.40;45.20;;;;;;10307991;28;20258;-75
2021/10/18 12:29:05;;;;;;;26.77;23.70;;;14.40;44.80;;;;;;10327551;28;20238;-74
2021/10/18 12:34:26;;;;;;;26.17;22.07;;;14.50;44.70;;;;;;10311454;28;20244;-74
2021/10/18 12:39:39;;;;;;;28.13;24.10;;;14.40;44.80;;;;;;10332405;28;20589;-77
2021/10/18 12:44:44;;;;;;;26.40;22.43;;;14.50;45.00;;;;;;10325345;28;20234;-74
2021/10/18 12:49:53;;;;;;;28.03;24.93;;;14.50;44.80;;;;;;10333024;28;20342;-75
2021/10/18 12:54:58;;;;;;;28.50;24.77;;;14.50;44.90;;;;;;10341843;28;20235;-74
2021/10/18 13:00:08;;;;;;;27.83;24.93;;;14.50;44.80;;;;;;10323122;28;21096;-75
2021/10/18 13:05:19;;;;;;;30.37;23.03;;;14.60;44.80;;;;;;10329445;28;20708;-74
2021/10/18 13:10:28;;;;;;;31.73;26.87;;;14.60;44.60;;;;;;10334731;28;20234;-73
2021/10/18 13:15:32;;;;;;;30.77;27.30;;;14.60;44.30;;;;;;10320288;28;20242;-72
2021/10/18 13:20:36;;;;;;;28.80;25.57;;;14.70;44.10;;;;;;10316174;28;20250;-73
2021/10/18 13:25:43;;;;;;;30.53;27.23;;;14.70;44.20;;;;;;10331503;28;20239;-72
2021/10/18 13:30:46;;;;;;;29.77;26.67;;;14.70;44.20;;;;;;10320194;28;20249;-73
2021/10/18 13:35:50;;;;;;;27.67;24.57;;;14.60;44.00;;;;;;10327330;28;20238;-72
2021/10/18 13:40:55;;;;;;;28.00;20.33;;;14.70;44.10;;;;;;10314612;28;20250;-73
2021/10/18 13:45:59;;;;;;;26.73;24.00;;;14.70;45.10;;;;;;10320302;28;20235;-73
2021/10/18 13:51:03;;;;;;;26.30;23.60;;;14.70;44.10;;;;;;10319640;28;20243;-73
2021/10/18 13:56:07;;;;;;;23.93;21.50;;;14.80;44.20;;;;;;10329023;28;20266;-73
2021/10/18 14:01:10;;;;;;;25.53;23.00;;;14.70;44.10;;;;;;10328393;28;20239;-73
2021/10/18 14:06:14;;;;;;;25.97;23.30;;;14.80;44.30;;;;;;10306199;28;20244;-73
2021/10/18 14:11:18;;;;;;;25.10;22.10;;;14.80;44.20;;;;;;10325607;28;20267;-73
2021/10/18 14:16:22;;;;;;;22.80;20.50;;;14.70;44.10;;;;;;10315146;28;20253;-74
2021/10/18 14:21:25;;;;;;;20.73;18.73;;;14.80;44.20;;;;;;10333310;28;20306;-73
2021/10/18 14:26:30;;;;;;;20.83;18.73;;;14.80;44.20;;;;;;10326595;28;20234;-73
2021/10/18 14:31:34;;;;;;;21.67;19.57;;;14.90;44.30;;;;;;10330413;28;20376;-74
2021/10/18 14:36:37;;;;;;;23.83;21.43;;;14.90;44.30;;;;;;10311345;28;20261;-73
2021/10/18 14:41:42;;;;;;;24.83;22.20;;;14.90;44.20;;;;;;10304103;28;20231;-73
2021/10/18 14:46:45;;;;;;;25.80;20.00;;;14.80;43.90;;;;;;10304036;28;20235;-75
2021/10/18 14:51:49;;;;;;;22.90;19.17;;;14.70;44.10;;;;;;10315914;28;20227;-74
2021/10/18 14:56:54;;;;;;;21.67;19.33;;;14.70;44.10;;;;;;10329780;28;20309;-74
2021/10/18 15:01:58;;;;;;;22.87;20.57;;;14.70;44.10;;;;;;10314750;28;20226;-73
2021/10/18 15:07:04;;;;;;;22.47;19.53;;;14.70;44.10;;;;;;10315364;28;20242;-74
2021/10/18 15:12:09;;;;;;;23.30;20.10;;;14.70;44.10;;;;;;10315881;28;20235;-74
2021/10/18 15:17:12;;;;;;;23.97;21.47;;;14.70;44.10;;;;;;10316835;28;20233;-74
2021/10/18 15:22:17;;;;;;;23.97;21.47;;;14.70;44.10;;;;;;10319310;28;20231;-74
2021/10/18 15:27:24;;;;;;;22.07;19.87;;;14.60;44.00;;;;;;10313629;28;20247;-73
2021/10/18 15:32:28;;;;;;;22.87;20.50;;;14.60;44.00;;;;;;10313997;28;20233;-73
2021/10/18 15:37:33;;;;;;;24.57;22.10;;;14.60;44.00;;;;;;10318164;28;20255;-73
2021/10/18 15:42:38;;;;;;;25.70;23.10;;;14.50;43.90;;;;;;10312957;28;20643;-73
2021/10/18 15:47:43;;;;;;;25.77;23.17;;;14.60;44.00;;;;;;10319316;28;20237;-73
2021/10/18 15:52:51;;;;;;;28.17;25.10;;;14.60;44.00;;;;;;10314340;28;20227;-74
2021/10/18 15:57:56;;;;;;;34.07;27.10;;;14.60;44.00;;;;;;10310185;28;20253;-73
2021/10/18 16:02:59;;;;;;;30.70;27.40;;;14.50;43.90;;;;;;10321462;28;20219;-73
2021/10/18 16:08:02;;;;;;;23.97;21.47;;;14.50;43.40;;;;;;10321995;28;20305;-73
2021/10/18 16:13:09;;;;;;;32.93;29.43;;;14.40;43.60;;;;;;10322392;28;20226;-73
2021/10/18 16:18:15;;;;;;;33.47;29.77;;;14.40;43.80;;;;;;10325612;28;20263;-74
2021/10/18 16:23:18;;;;;;;33.20;29.63;;;14.30;43.70;;;;;;10318851;28;20227;-73
2021/10/18 16:28:25;;;;;;;29.37;26.23;;;14.20;43.60;;;;;;10314808;28;20758;-73
2021/10/18 16:33:29;;;;;;;32.77;27.63;;;14.20;43.60;;;;;;10322944;28;20708;-73
2021/10/18 16:38:32;;;;;;;29.87;26.63;;;14.10;43.60;;;;;;10321235;28;20235;-73
2021/10/18 16:43:37;;;;;;;30.77;27.40;;;14.00;43.40;;;;;;10315533;28;20254;-74
2021/10/18 16:48:40;;;;;;;30.40;27.10;;;14.00;43.50;;;;;;10306709;28;20466;-75
2021/10/18 16:53:43;;;;;;;32.50;29.00;;;14.00;43.40;;;;;;10314979;28;20241;-76
2021/10/18 16:58:48;;;;;;;31.70;27.30;;;14.00;43.40;;;;;;10316165;28;20263;-76
2021/10/18 17:03:51;;;;;;;28.10;24.97;;;13.90;43.40;;;;;;10310271;28;20235;-75
2021/10/18 17:08:55;;;;;;;28.33;25.33;;;13.80;43.30;;;;;;10314131;28;20231;-75
2021/10/18 17:14:01;;;;;;;27.13;24.23;;;13.80;43.30;;;;;;10302121;28;20227;-75
2021/10/18 17:19:05;;;;;;;28.37;24.33;;;13.70;43.50;;;;;;10312279;28;20239;-75
2021/10/18 17:24:09;;;;;;;26.43;23.57;;;13.60;43.50;;;;;;10317628;28;20258;-75
2021/10/18 17:29:14;;;;;;;26.10;23.33;;;13.60;43.60;;;;;;10316953;28;20301;-76
2021/10/18 17:34:21;;;;;;;26.73;24.00;;;13.60;43.60;;;;;;10312937;28;20243;-75
2021/10/18 17:39:26;;;;;;;24.33;21.83;;;13.50;43.30;;;;;;10304435;28;20266;-75
2021/10/18 17:44:31;;;;;;;24.40;21.80;;;13.40;43.70;;;;;;10313647;28;20608;-75
2021/10/18 17:49:34;;;;;;;26.00;23.27;;;13.30;43.90;;;;;;10311787;28;20239;-75
2021/10/18 17:54:37;;;;;;;27.73;24.53;;;13.20;43.70;;;;;;10317217;28;20716;-75
2021/10/18 17:59:42;;;;;;;27.97;25.00;;;13.20;43.90;;;;;;10314874;28;20239;-75
2021/10/18 18:04:48;;;;;;;29.47;26.27;;;13.20;44.20;;;;;;10309313;28;20810;-75
2021/10/18 18:09:52;;;;;;;27.07;24.20;;;13.30;43.90;;;;;;10303162;28;20239;-75
2021/10/18 18:14:56;;;;;;;26.77;23.97;;;13.30;43.70;;;;;;10306136;28;20226;-75
2021/10/18 18:20:02;;;;;;;27.10;24.30;;;13.10;43.70;;;;;;10298552;28;20230;-74
2021/10/18 18:25:07;;;;;;;25.17;22.57;;;13.00;43.70;;;;;;10308596;28;20228;-73
2021/10/18 18:30:14;;;;;;;25.90;23.30;;;12.90;44.20;;;;;;10300529;28;20239;-73
2021/10/18 18:35:18;;;;;;;28.67;25.60;;;12.80;44.50;;;;;;10302671;28;20227;-73
2021/10/18 18:40:23;;;;;;;24.23;19.83;;;12.80;44.40;;;;;;10299924;28;20246;-74
2021/10/18 18:45:28;;;;;;;27.20;23.33;;;12.70;44.40;;;;;;10297543;28;20495;-73
2021/10/18 18:50:31;;;;;;;26.90;24.07;;;12.80;44.70;;;;;;10300857;28;20250;-74
2021/10/18 18:55:34;;;;;;;26.00;23.27;;;12.80;44.50;;;;;;10308468;28;20246;-74
2021/10/18 19:00:39;;;;;;;27.63;24.57;;;12.80;44.60;;;;;;10305250;28;20279;-74
2021/10/18 19:05:43;;;;;;;28.90;25.33;;;12.80;44.70;;;;;;10300779;28;20239;-74
2021/10/18 19:10:46;;;;;;;24.23;21.77;;;12.80;44.50;;;;;;10305703;28;20243;-74
2021/10/18 19:15:51;;;;;;;25.17;22.57;;;12.80;44.50;;;;;;10305976;28;20234;-73
2021/10/18 19:20:54;;;;;;;27.60;24.67;;;12.80;44.70;;;;;;10308841;28;20227;-74
2021/10/18 19:25:58;;;;;;;22.17;19.87;;;12.90;44.70;;;;;;10313689;28;20716;-75
2021/10/18 19:31:02;;;;;;;26.27;23.57;;;12.90;44.70;;;;;;10310048;28;20235;-76
2021/10/18 19:36:06;;;;;;;28.00;24.97;;;12.90;44.70;;;;;;10312394;28;20266;-76
2021/10/18 19:41:10;;;;;;;21.80;19.60;;;13.00;44.60;;;;;;10325380;28;20614;-75
2021/10/18 19:46:14;;;;;;;25.30;22.67;;;13.00;44.40;;;;;;10325226;28;20242;-76
2021/10/18 19:51:19;;;;;;;26.77;23.87;;;12.90;44.60;;;;;;10304897;28;20622;-76
2021/10/18 19:56:23;;;;;;;27.73;24.03;;;12.90;44.50;;;;;;10300951;28;20239;-75
2021/10/18 20:01:27;;;;;;;27.73;24.90;;;12.90;44.30;;;;;;10304018;28;20231;-76
2021/10/18 20:06:31;;;;;;;28.40;24.13;;;12.90;44.50;;;;;;10301747;28;20246;-77
2021/10/18 20:11:34;;;;;;;30.43;26.10;;;12.80;44.40;;;;;;10306594;28;20243;-77
2021/10/18 20:16:39;;;;;;;35.10;26.33;;;12.80;44.50;;;;;;10304843;28;20313;-77
2021/10/18 20:21:42;;;;;;;29.83;25.60;;;12.80;44.70;;;;;;10304724;28;20237;-77
2021/10/18 20:26:46;;;;;;;29.13;24.63;;;12.70;44.60;;;;;;10305149;28;20287;-76
2021/10/18 20:31:50;;;;;;;70.20;25.83;;;12.70;44.70;;;;;;10303562;28;20234;-76
2021/10/18 20:37:03;;;;;;;30.30;24.13;;;12.70;44.80;;;;;;10305489;28;20242;-76
2021/10/18 20:42:08;;;;;;;37.80;23.87;;;12.70;45.40;;;;;;10311563;28;20230;-76
2021/10/18 20:47:13;;;;;;;47.30;24.87;;;12.70;44.80;;;;;;10306457;28;20240;-76
2021/10/18 20:52:18;;;;;;;25.53;22.90;;;12.70;44.80;;;;;;10311302;28;20277;-76
2021/10/18 20:57:21;;;;;;;58.43;24.03;;;12.60;44.60;;;;;;10303437;28;20237;-75
2021/10/18 21:02:26;;;;;;;26.37;22.77;;;12.60;44.60;;;;;;10299148;28;20226;-77
2021/10/18 21:07:29;;;;;;;22.57;20.27;;;12.60;45.00;;;;;;10302267;28;20318;-77
2021/10/18 21:12:32;;;;;;;65.10;24.33;;;12.60;45.50;;;;;;10306419;28;20227;-76
2021/10/18 21:17:37;;;;;;;23.30;20.90;;;12.60;45.00;;;;;;10300961;28;20239;-76
2021/10/18 21:22:41;;;;;;;46.47;21.00;;;12.60;45.20;;;;;;10309691;28;20227;-76
2021/10/18 21:27:44;;;;;;;60.17;21.73;;;12.50;44.60;;;;;;10307241;28;20744;-77
2021/10/18 21:32:51;;;;;;;55.70;21.87;;;12.50;44.70;;;;;;10315571;28;20242;-76
2021/10/18 21:37:54;;;;;;;58.93;22.20;;;12.50;45.20;;;;;;10309342;28;20239;-76
2021/10/18 21:42:58;;;;;;;17.33;15.57;;;12.40;45.00;;;;;;10311794;28;20269;-76
2021/10/18 21:48:02;;;;;;;22.23;19.93;;;12.50;45.10;;;;;;10312392;28;20230;-77
2021/10/18 21:53:06;;;;;;;19.87;17.87;;;12.40;45.30;;;;;;10314980;28;20238;-77
2021/10/18 21:58:09;;;;;;;21.73;19.53;;;12.50;45.30;;;;;;10309048;28;20235;-77
2021/10/18 22:03:14;;;;;;;24.33;20.60;;;12.60;45.40;;;;;;10301884;28;20957;-77
2021/10/18 22:08:17;;;;;;;23.77;21.37;;;12.60;45.30;;;;;;10300167;28;20769;-77
2021/10/18 22:13:20;;;;;;;31.50;21.13;;;12.60;45.10;;;;;;10301119;28;20231;-77
2021/10/18 22:18:26;;;;;;;22.20;20.00;;;12.70;45.20;;;;;;10296579;28;20267;-76
2021/10/18 22:23:29;;;;;;;22.57;20.00;;;12.70;45.30;;;;;;10296019;28;20235;-77
2021/10/18 22:28:32;;;;;;;19.77;17.77;;;12.70;45.00;;;;;;10299772;28;20782;-76
2021/10/18 22:33:36;;;;;;;30.13;18.93;;;12.70;44.90;;;;;;10306262;28;20242;-77
2021/10/18 22:38:42;;;;;;;21.20;19.17;;;12.70;44.70;;;;;;10302252;28;20238;-78
2021/10/18 22:43:45;;;;;;;20.33;18.27;;;12.70;44.70;;;;;;10305708;28;20791;-76
2021/10/18 22:48:54;;;;;;;21.77;18.83;;;12.60;44.80;;;;;;10299103;28;20241;-76
2021/10/18 22:53:57;;;;;;;16.60;15.00;;;12.60;44.70;;;;;;10307877;28;20234;-76
2021/10/18 22:59:00;;;;;;;19.53;17.63;;;12.50;44.50;;;;;;10307969;28;20239;-77
2021/10/18 23:04:05;;;;;;;20.67;17.33;;;12.50;44.70;;;;;;10309546;28;20223;-77
2021/10/18 23:09:08;;;;;;;25.90;16.27;;;12.50;45.00;;;;;;10315527;28;20246;-78
2021/10/18 23:14:12;;;;;;;19.67;17.77;;;12.50;44.80;;;;;;10314815;28;20237;-77
2021/10/18 23:19:16;;;;;;;21.83;15.50;;;12.50;44.80;;;;;;10315560;28;20321;-77
2021/10/18 23:24:19;;;;;;;17.17;15.50;;;12.50;44.70;;;;;;10310819;28;20238;-77
2021/10/18 23:29:23;;;;;;;18.33;16.43;;;12.40;44.60;;;;;;10312680;28;20239;-76
2021/10/18 23:34:27;;;;;;;19.37;17.43;;;12.30;44.80;;;;;;10306633;28;20222;-77
2021/10/18 23:39:31;;;;;;;30.27;17.00;;;12.20;45.00;;;;;;10310249;28;21023;-76
2021/10/18 23:44:34;;;;;;;17.47;15.73;;;12.20;44.80;;;;;;10307468;28;20231;-76
2021/10/18 23:49:39;;;;;;;22.67;16.07;;;12.20;44.90;;;;;;10317386;28;20231;-76
2021/10/18 23:54:42;;;;;;;50.33;15.90;;;12.10;45.00;;;;;;10316420;28;20601;-77
2021/10/18 23:59:45;;;;;;;26.03;15.13;;;12.10;44.80;;;;;;10314489;28;20248;-77
